Accueil
METAR-TAF:

METAR-TAF

Aéroports :

Aéroport international du Caire

Le Caire, Égypte

latitude: 30-08N, longitude: 031-24E, altitude: 64 m

Observation

Le bulletin a été fait il y a 34 minutes, à 03:30 UTC
Vent 6 kt de nord/nord-est
Température 26°C
Humidité 84%
Pression 1012 hPa
Visibilité 10 km ou plus
pas de nuages en-dessous de 1500 mètres et pas de cumulonimbus.

METAR: HECA 230330Z 02006KT CAVOK 26/23 Q1012 NOSIG

Heure: 06:04 (04:04 UTC)

Prévision

Le bulletin a été fait il y a 5 heures et 4 minutes, à 23:00 UTC
Prévision valable du 23 à 00 UTC au 24 à 06 UTC
Vent 12 kt de nord/nord-est
Visibilité 10 km ou plus
pas de nuages en-dessous de 1500 mètres et pas de cumulonimbus.
Temporairement
du 23 à 03 UTC au 23 à 06 UTC
Vent 3 kt de direction variable

TAF: HECA 222300Z 2300/2406 03012KT CAVOK TEMPO 2303/2306 VRB03KT 4000HZ NSC

Observations et prévisions météorologiques de plus de 4000 aéroports (messages METAR et TAF).

Les stations disponibles sont représentées par des disques jaunes et rouges sur la carte.

Passer la souris dessus pour voir le nom de la station.

Cliquer dessus pour voir les observations et prévisions météorologiques.

Pour changer de carte: cliquez sur les boutons verts avec une croix noire pour zoomer, sur le bouton vert avec un tiret pour effectuer un zoom arrière, ou sur les flèches vertes pour les cartes adjacentes.


METAR-TAF: